メインページ
METAR-TAF:

METAR-TAF

空港 :

ポートビラ・バウアフィールド空港

ポートビラ, エファテ島, バヌアツ

緯度: 17-42S, 経度: 168-18E, 海抜: 20m

現時点の気象観測

当レポートは21分前の05:00(UTC)に作成
南/南西の風 2kt
気温 28°C
湿度 66%
気圧 1013 hPa
視程10km以上
高度2500ftの雲はほとんどない

METAR: NVVV 200500Z 21002KT 9999 FEW025 28/21 Q1013 RMK NIL

時間: 16:21 (05:21 UTC)

予報

当レポートは7時間1分前の22:20(UTC)に作成
予報は20日の 00時(UTC)から 20日の 24時(UTC)まで有効
北/北東の風 5kt
視程: 9000m
高度2000ftの雲は散在している
高度4000ftの千切れ雲あり
高度1800ftの千切れ雲あり
弱いにわか雨

TAF: NVVV 192220Z 2000/2024 03005KT 9999 SCT020 BKN040 INTER 2000/2006 9000 -SHRA BKN018

4,000以上の空港の気象観測と天気予報(METAR報とTAF報)

利用可能な観測所は地図上に黄色い丸と赤い丸で示す。

丸の上にカーソルを重ねると観測所名を参照できる。

次にクリックすると気象観測と天気予報を参照できる。

マップの切り替え:黒色「×」印の緑ボタンをクリックして拡大、「-」印の緑ボタンをクリックして縮小、緑色の三角印をクリックして隣りの地図に切り替え


METAR-TAF: